Time;durP1;ratioP1;P1;durP2;ratioP2;P2;SDS_P1;SDS_P2;PMS_P1;PMS_P2;Temp;Humidity;BMP_temperature;BMP_pressure;BME280_temperature;BME280_humidity;BME280_pressure;Samples;Min_cycle;Max_cycle;Signal;HPM_P1;HPM_P2
2022/12/01 00:01:44;;;;;;;76.93;23.57;;;4.50;99.90;;;;;;5034607;28;20203;-89
2022/12/01 00:04:17;;;;;;;69.40;22.67;;;4.30;99.90;;;;;;5034277;28;20207;-87
2022/12/01 00:06:49;;;;;;;47.50;22.67;;;4.30;99.90;;;;;;5023916;28;20234;-88
2022/12/01 00:12:00;;;;;;;81.80;25.27;;;4.30;99.90;;;;;;5014465;28;20258;-90
2022/12/01 00:14:33;;;;;;;124.80;25.50;;;4.40;99.90;;;;;;5032770;28;20202;-88
2022/12/01 00:17:00;;;;;;;98.37;24.33;;;4.30;99.90;;;;;;5033729;28;20201;-87
2022/12/01 00:19:30;;;;;;;104.67;24.87;;;4.30;99.90;;;;;;5033347;28;20206;-92
2022/12/01 00:21:59;;;;;;;117.17;24.83;;;4.40;99.90;;;;;;5033533;28;20559;-87
2022/12/01 00:24:29;;;;;;;96.70;22.37;;;4.30;99.90;;;;;;5033554;28;20214;-85
2022/12/01 00:27:02;;;;;;;87.57;23.97;;;4.20;99.90;;;;;;5033419;28;20226;-90
2022/12/01 00:29:32;;;;;;;74.20;22.00;;;4.20;99.90;;;;;;5033139;28;20203;-88
2022/12/01 00:32:05;;;;;;;125.63;24.23;;;4.00;99.90;;;;;;5033333;28;20207;-87
2022/12/01 00:34:33;;;;;;;145.25;27.20;;;3.90;99.90;;;;;;5033089;28;20431;-86
2022/12/01 00:37:08;;;;;;;105.23;23.53;;;3.80;99.90;;;;;;5026015;28;20204;-89
2022/12/01 00:39:36;;;;;;;98.90;22.10;;;3.90;99.90;;;;;;5014293;28;20203;-80
2022/12/01 00:42:09;;;;;;;107.73;22.57;;;4.00;99.90;;;;;;5033070;28;20199;-85
2022/12/01 00:44:36;;;;;;;79.40;22.50;;;3.80;99.90;;;;;;5034029;28;20233;-80
2022/12/01 00:47:05;;;;;;;68.23;20.73;;;3.70;99.90;;;;;;5023963;28;20314;-81
2022/12/01 00:49:32;;;;;;;60.90;19.43;;;3.80;99.90;;;;;;5037633;28;20304;-81
2022/12/01 00:52:03;;;;;;;52.17;18.30;;;3.80;99.90;;;;;;5019209;28;20212;-81
2022/12/01 00:54:32;;;;;;;45.80;20.03;;;3.70;99.90;;;;;;5029144;28;20207;-83
2022/12/01 00:57:01;;;;;;;52.53;18.97;;;3.50;99.90;;;;;;5037657;28;20227;-88
2022/12/01 00:59:30;;;;;;;61.93;19.70;;;3.50;99.90;;;;;;5037704;28;20432;-86
2022/12/01 01:01:57;;;;;;;78.33;22.73;;;3.60;99.90;;;;;;5037842;28;20448;-89
2022/12/01 01:04:25;;;;;;;58.67;20.53;;;3.70;99.90;;;;;;5037763;28;20215;-89
2022/12/01 01:06:53;;;;;;;40.90;19.47;;;3.80;99.90;;;;;;5037445;28;20203;-86
2022/12/01 01:09:20;;;;;;;35.47;19.87;;;3.60;99.90;;;;;;5023502;28;20210;-86
2022/12/01 01:11:51;;;;;;;43.77;20.23;;;3.80;99.90;;;;;;5024024;28;20637;-80
2022/12/01 01:14:21;;;;;;;34.40;21.17;;;4.00;99.90;;;;;;5036451;28;20203;-82
2022/12/01 01:16:48;;;;;;;30.43;20.40;;;3.80;99.90;;;;;;5025880;28;20322;-81
2022/12/01 01:19:16;;;;;;;33.77;21.17;;;3.90;99.90;;;;;;5031113;28;20208;-80
2022/12/01 01:21:43;;;;;;;33.83;21.40;;;4.20;99.90;;;;;;5027039;28;20199;-82
2022/12/01 01:24:10;;;;;;;31.77;20.20;;;4.20;99.90;;;;;;5037015;28;20226;-83
2022/12/01 01:26:49;;;;;;;33.55;20.13;;;4.20;99.90;;;;;;5037443;28;20088;-80
2022/12/01 01:29:17;;;;;;;33.70;21.53;;;4.30;99.90;;;;;;5036830;28;20210;-89
2022/12/01 01:31:44;;;;;;;35.57;21.30;;;4.40;99.90;;;;;;5037163;28;20207;-84
2022/12/01 01:34:16;;;;;;;42.50;21.90;;;4.50;99.90;;;;;;5037381;28;20215;-90
2022/12/01 01:36:43;;;;;;;32.73;21.53;;;4.50;99.90;;;;;;5037735;28;20210;-86
2022/12/01 01:39:10;;;;;;;33.77;20.50;;;4.50;99.90;;;;;;5023217;28;20207;-83
2022/12/01 01:41:37;;;;;;;34.77;21.53;;;4.50;99.90;;;;;;5030609;28;20200;-87
2022/12/01 01:44:24;;;;;;;36.40;21.87;;;4.60;99.90;;;;;;5016821;28;20208;-90
2022/12/01 01:46:55;;;;;;;39.60;23.47;;;4.70;99.90;;;;;;5024066;28;20217;-89
2022/12/01 01:49:22;;;;;;;38.17;23.93;;;4.80;99.90;;;;;;5036154;28;20214;-86
2022/12/01 01:51:54;;;;;;;47.60;27.53;;;4.90;99.90;;;;;;5036303;28;20681;-88
2022/12/01 01:54:26;;;;;;;54.78;35.67;;;5.00;99.90;;;;;;5035411;28;20913;-88
2022/12/01 01:56:56;;;;;;;49.50;28.77;;;5.00;99.90;;;;;;5034313;28;20200;-86
2022/12/01 01:59:27;;;;;;;49.27;26.47;;;5.10;99.90;;;;;;5033615;28;20204;-89
2022/12/01 02:02:04;;;;;;;44.27;25.90;;;5.10;99.90;;;;;;5035390;28;20207;-90
2022/12/01 02:04:35;;;;;;;37.47;23.27;;;5.10;99.90;;;;;;5035367;28;20214;-83
2022/12/01 02:07:02;;;;;;;42.00;24.23;;;5.10;99.90;;;;;;5036100;28;20199;-88
2022/12/01 02:09:34;;;;;;;38.70;24.20;;;5.00;99.90;;;;;;5036229;28;20211;-88
2022/12/01 02:12:16;;;;;;;43.00;25.00;;;4.90;99.90;;;;;;5036305;28;20203;-83
2022/12/01 02:15:03;;;;;;;42.57;25.23;;;5.00;99.90;;;;;;5036365;28;20214;-84
2022/12/01 02:17:41;;;;;;;46.50;27.30;;;4.80;99.90;;;;;;5036841;28;20207;-83
2022/12/01 02:20:42;;;;;;;55.67;30.83;;;4.90;99.90;;;;;;5036731;28;20195;-81
2022/12/01 02:23:47;;;;;;;60.13;30.90;;;5.00;99.90;;;;;;5036306;28;20214;-84
2022/12/01 02:26:36;;;;;;;62.10;31.93;;;5.10;99.90;;;;;;5036864;28;20203;-85
2022/12/01 02:29:50;;;;;;;67.30;34.63;;;5.20;99.90;;;;;;5036046;28;20231;-86
2022/12/01 02:32:29;;;;;;;70.60;35.00;;;5.30;99.90;;;;;;4965428;28;20205;-88
2022/12/01 02:35:03;;;;;;;66.93;34.53;;;5.30;99.90;;;;;;5034613;28;20203;-87
2022/12/01 02:37:35;;;;;;;64.27;34.47;;;5.20;99.90;;;;;;5036039;28;20197;-87
2022/12/01 02:40:15;;;;;;;70.57;35.07;;;5.20;99.90;;;;;;5035544;28;20221;-87
2022/12/01 02:42:52;;;;;;;78.20;37.23;;;5.00;99.90;;;;;;5036061;28;20213;-84
2022/12/01 02:45:26;;;;;;;73.07;36.43;;;5.00;99.90;;;;;;5036472;28;20210;-83
2022/12/01 02:47:59;;;;;;;75.20;38.40;;;5.10;99.90;;;;;;5036020;28;20219;-83
2022/12/01 02:50:28;;;;;;;78.27;38.87;;;5.10;99.90;;;;;;5035345;28;20260;-82
2022/12/01 02:52:55;;;;;;;77.17;39.40;;;5.20;99.90;;;;;;5035366;28;20211;-82
2022/12/01 02:55:25;;;;;;;68.97;36.63;;;5.10;99.90;;;;;;5035383;28;20211;-82
2022/12/01 02:57:57;;;;;;;79.23;38.17;;;5.10;99.90;;;;;;5035591;28;20195;-88
2022/12/01 03:00:29;;;;;;;75.37;38.53;;;5.30;99.90;;;;;;5035513;28;20203;-90
2022/12/01 03:03:18;;;;;;;81.30;39.63;;;5.30;99.90;;;;;;5035282;28;20578;-91
2022/12/01 03:05:51;;;;;;;79.37;39.10;;;5.20;99.90;;;;;;5036219;28;20294;-88
2022/12/01 03:08:27;;;;;;;79.80;39.10;;;5.20;99.90;;;;;;5034447;28;20219;-87
2022/12/01 03:11:00;;;;;;;72.60;37.23;;;5.10;99.90;;;;;;5036026;28;20549;-84
2022/12/01 03:13:38;;;;;;;79.20;39.43;;;5.30;99.90;;;;;;5035613;28;20247;-81
2022/12/01 03:16:12;;;;;;;78.67;38.20;;;5.30;99.90;;;;;;5035210;28;20192;-82
2022/12/01 03:18:43;;;;;;;79.20;39.27;;;5.40;99.90;;;;;;5035173;28;20202;-84
2022/12/01 03:21:23;;;;;;;64.13;33.63;;;5.60;99.90;;;;;;5035216;28;20206;-81
2022/12/01 03:23:58;;;;;;;70.83;35.33;;;5.60;99.90;;;;;;5034769;28;20207;-82
2022/12/01 03:26:31;;;;;;;67.07;35.97;;;5.60;99.90;;;;;;5034803;28;20289;-81
2022/12/01 03:29:07;;;;;;;62.40;33.17;;;5.80;99.90;;;;;;5034835;28;20222;-84
2022/12/01 03:31:39;;;;;;;62.30;33.27;;;5.80;99.90;;;;;;5035239;28;20203;-87
2022/12/01 03:34:13;;;;;;;57.97;33.33;;;5.70;99.90;;;;;;5034457;28;20215;-82
2022/12/01 03:36:51;;;;;;;60.43;31.73;;;5.60;99.90;;;;;;5034459;28;20214;-84
2022/12/01 03:39:23;;;;;;;58.23;31.03;;;5.50;99.90;;;;;;5035053;28;20203;-83
2022/12/01 03:41:58;;;;;;;57.80;31.90;;;5.50;99.90;;;;;;5035299;28;20230;-89
2022/12/01 03:44:35;;;;;;;59.83;33.20;;;5.50;99.90;;;;;;5035861;28;20199;-89
2022/12/01 03:47:12;;;;;;;47.83;29.50;;;5.40;99.90;;;;;;5035173;28;20201;-88
2022/12/01 03:49:47;;;;;;;55.23;29.83;;;5.40;99.90;;;;;;5034400;28;20215;-88
2022/12/01 03:52:28;;;;;;;54.27;31.07;;;5.40;99.90;;;;;;5034742;28;20232;-89
2022/12/01 03:55:10;;;;;;;53.07;30.23;;;5.60;99.90;;;;;;5034947;28;20309;-87
2022/12/01 03:57:46;;;;;;;54.40;30.40;;;5.70;99.90;;;;;;5034980;28;20620;-86
2022/12/01 04:00:15;;;;;;;48.00;28.17;;;5.70;99.90;;;;;;5034893;28;20209;-88
2022/12/01 04:02:48;;;;;;;48.30;29.43;;;5.70;99.90;;;;;;5034720;28;20235;-86
2022/12/01 04:05:17;;;;;;;53.20;29.53;;;5.80;99.90;;;;;;5033658;28;20597;-85
2022/12/01 04:07:46;;;;;;;51.27;29.20;;;5.60;99.90;;;;;;5033951;28;20202;-82
2022/12/01 04:10:19;;;;;;;49.50;28.57;;;5.70;99.90;;;;;;5033459;28;20200;-84
2022/12/01 04:12:45;;;;;;;53.97;28.63;;;5.80;99.90;;;;;;5033503;28;20666;-86
2022/12/01 04:15:13;;;;;;;48.27;28.07;;;5.90;99.90;;;;;;5033836;28;20261;-85
2022/12/01 04:17:42;;;;;;;49.43;29.03;;;6.00;99.90;;;;;;5034167;28;20202;-87
2022/12/01 04:20:34;;;;;;;45.97;28.30;;;5.90;99.90;;;;;;5036907;28;20647;-86
2022/12/01 04:23:02;;;;;;;46.00;27.53;;;6.10;99.90;;;;;;5037494;28;20215;-83
2022/12/01 04:25:33;;;;;;;47.97;28.17;;;6.10;99.90;;;;;;5037179;28;20214;-87
2022/12/01 04:28:03;;;;;;;43.20;26.23;;;6.20;99.90;;;;;;5037533;28;20223;-85
2022/12/01 04:30:36;;;;;;;40.40;25.53;;;6.30;99.90;;;;;;5034677;28;20206;-83
2022/12/01 04:33:03;;;;;;;40.70;24.57;;;6.40;99.90;;;;;;5037953;28;20215;-85
2022/12/01 04:35:38;;;;;;;39.07;23.93;;;6.20;99.90;;;;;;5029273;28;20263;-84
2022/12/01 04:38:06;;;;;;;37.77;23.60;;;6.10;99.90;;;;;;5018070;28;20214;-86
2022/12/01 04:40:38;;;;;;;37.83;24.13;;;6.10;99.90;;;;;;5025559;28;20646;-86
2022/12/01 04:43:05;;;;;;;38.80;24.13;;;6.20;99.90;;;;;;5036594;28;20645;-88
2022/12/01 04:45:35;;;;;;;34.53;21.30;;;6.10;99.90;;;;;;5018000;28;20218;-88
2022/12/01 04:48:04;;;;;;;31.83;19.67;;;6.20;99.90;;;;;;5031503;28;20199;-87
2022/12/01 04:50:38;;;;;;;29.97;19.47;;;5.80;99.90;;;;;;5017232;28;20218;-85
2022/12/01 04:53:04;;;;;;;30.97;20.03;;;6.00;99.90;;;;;;5017140;28;20231;-87
2022/12/01 04:55:38;;;;;;;30.10;19.20;;;6.10;99.90;;;;;;5017272;28;20217;-88
2022/12/01 04:58:11;;;;;;;31.73;19.13;;;6.00;99.90;;;;;;5017731;28;20208;-88
2022/12/01 05:00:40;;;;;;;29.17;18.03;;;5.80;99.90;;;;;;5032094;28;20214;-87
2022/12/01 05:03:07;;;;;;;30.80;17.77;;;5.70;99.90;;;;;;5017379;28;20204;-88
2022/12/01 05:05:38;;;;;;;30.93;18.27;;;5.80;99.90;;;;;;5016825;28;20230;-88
2022/12/01 05:08:06;;;;;;;27.67;18.33;;;5.80;99.90;;;;;;5027369;28;20207;-88
2022/12/01 05:10:37;;;;;;;30.07;19.03;;;5.70;99.90;;;;;;5037059;28;20211;-84
2022/12/01 05:13:05;;;;;;;31.10;19.83;;;5.70;99.90;;;;;;5036959;28;20238;-86
2022/12/01 05:15:38;;;;;;;32.33;19.47;;;5.60;99.90;;;;;;5036917;28;20210;-86
2022/12/01 05:18:10;;;;;;;30.83;19.33;;;5.70;99.90;;;;;;5036793;28;20460;-87
2022/12/01 05:20:55;;;;;;;30.77;19.40;;;5.70;99.90;;;;;;5037401;28;20207;-84
2022/12/01 05:23:22;;;;;;;35.07;20.57;;;5.70;99.90;;;;;;5036916;28;20577;-86
2022/12/01 05:25:52;;;;;;;32.37;19.33;;;5.70;99.90;;;;;;5036914;28;20214;-88
2022/12/01 05:28:24;;;;;;;33.57;19.93;;;5.90;99.90;;;;;;5036630;28;20230;-85
2022/12/01 05:30:51;;;;;;;32.00;19.17;;;6.00;99.90;;;;;;5036207;28;20215;-86
2022/12/01 05:33:20;;;;;;;32.57;20.63;;;6.00;99.90;;;;;;5036560;28;20199;-87
2022/12/01 05:35:54;;;;;;;29.30;18.73;;;5.90;99.90;;;;;;5024154;28;20212;-86
2022/12/01 05:38:30;;;;;;;33.33;19.67;;;6.10;99.90;;;;;;5016812;28;20215;-86
2022/12/01 05:40:58;;;;;;;27.17;18.73;;;6.00;99.90;;;;;;5017246;28;20203;-87
2022/12/01 05:43:31;;;;;;;31.00;19.17;;;6.00;99.90;;;;;;5022734;28;20215;-86
2022/12/01 05:45:58;;;;;;;31.27;19.13;;;5.90;99.90;;;;;;5023625;28;20651;-85
2022/12/01 05:48:27;;;;;;;29.97;19.60;;;5.90;99.90;;;;;;5016092;28;20239;-85
2022/12/01 05:50:58;;;;;;;29.07;19.17;;;6.00;99.90;;;;;;5016741;28;20215;-86
2022/12/01 05:53:25;;;;;;;30.20;18.63;;;6.20;99.90;;;;;;5020448;28;20226;-87
2022/12/01 05:55:53;;;;;;;30.43;18.70;;;6.20;99.90;;;;;;5026432;28;20208;-87
2022/12/01 05:58:22;;;;;;;29.40;19.67;;;6.00;99.90;;;;;;5032138;28;22059;-87
2022/12/01 06:00:55;;;;;;;27.60;18.13;;;5.90;99.90;;;;;;5016656;28;20219;-88
2022/12/01 06:03:24;;;;;;;34.30;20.93;;;6.10;99.90;;;;;;5016085;28;20677;-85
2022/12/01 06:05:51;;;;;;;33.57;20.73;;;6.00;99.90;;;;;;5017131;28;20204;-86
2022/12/01 06:08:22;;;;;;;32.63;20.60;;;5.90;99.90;;;;;;5016199;28;20592;-86
2022/12/01 06:10:50;;;;;;;33.60;20.23;;;5.70;99.90;;;;;;5016798;28;20203;-85
2022/12/01 06:13:17;;;;;;;32.20;19.83;;;5.60;99.90;;;;;;5016416;28;20208;-87
2022/12/01 06:15:57;;;;;;;29.00;18.60;;;5.70;99.90;;;;;;5016989;28;20192;-87
2022/12/01 06:18:31;;;;;;;32.07;20.30;;;5.70;99.90;;;;;;5016640;28;20214;-90
2022/12/01 06:21:00;;;;;;;32.67;20.07;;;5.70;99.90;;;;;;5016520;28;20194;-87
2022/12/01 06:23:31;;;;;;;37.10;21.27;;;5.80;99.90;;;;;;5016252;28;20196;-89
2022/12/01 06:25:58;;;;;;;33.23;20.17;;;5.90;99.90;;;;;;5015845;28;20203;-86
2022/12/01 06:28:26;;;;;;;35.07;20.27;;;5.80;99.90;;;;;;5015838;28;20211;-92
2022/12/01 06:30:53;;;;;;;32.63;19.67;;;5.60;99.90;;;;;;5015990;28;20203;-89
2022/12/01 06:33:22;;;;;;;33.87;19.27;;;5.50;99.90;;;;;;5016361;28;20206;-88
2022/12/01 06:35:49;;;;;;;35.37;19.53;;;5.60;99.90;;;;;;5016563;28;20257;-86
2022/12/01 06:38:17;;;;;;;31.23;18.67;;;5.50;99.90;;;;;;5016590;28;20203;-82
2022/12/01 06:40:48;;;;;;;33.40;19.93;;;5.70;99.90;;;;;;5015951;28;20197;-85
2022/12/01 06:43:17;;;;;;;37.43;21.33;;;5.70;99.90;;;;;;5014686;28;20199;-85
2022/12/01 06:45:51;;;;;;;37.63;22.20;;;5.80;99.90;;;;;;5014799;28;20200;-87
2022/12/01 06:48:19;;;;;;;37.67;21.60;;;5.70;99.90;;;;;;5015433;28;20225;-86
2022/12/01 06:50:45;;;;;;;38.50;20.53;;;5.60;99.90;;;;;;5015473;28;20216;-87
2022/12/01 06:53:17;;;;;;;36.20;21.23;;;5.70;99.90;;;;;;5019031;28;20243;-87
2022/12/01 06:55:51;;;;;;;34.90;21.43;;;5.70;99.90;;;;;;5016986;28;20200;-82
2022/12/01 06:58:18;;;;;;;34.30;20.70;;;5.60;99.90;;;;;;5016807;28;20213;-88
2022/12/01 07:00:45;;;;;;;37.37;21.43;;;5.70;99.90;;;;;;5026813;28;20566;-85
2022/12/01 07:03:18;;;;;;;38.20;22.50;;;5.80;99.90;;;;;;5037632;28;20230;-83
2022/12/01 07:05:57;;;;;;;37.50;22.37;;;5.80;99.90;;;;;;5035858;28;20214;-85
2022/12/01 07:08:24;;;;;;;41.90;22.47;;;5.60;99.90;;;;;;5023992;28;20561;-86
2022/12/01 07:10:59;;;;;;;35.13;22.00;;;5.50;99.90;;;;;;5037279;28;20231;-86
2022/12/01 07:13:26;;;;;;;38.10;22.43;;;5.50;99.90;;;;;;5023994;28;20207;-87
2022/12/01 07:15:57;;;;;;;39.90;22.70;;;5.60;99.90;;;;;;5018198;28;20248;-86
2022/12/01 07:18:26;;;;;;;40.97;22.93;;;5.60;99.90;;;;;;5034380;28;20553;-88
2022/12/01 07:21:00;;;;;;;42.60;23.43;;;5.60;99.90;;;;;;5020691;28;20207;-89
2022/12/01 07:23:28;;;;;;;42.37;24.40;;;5.70;99.90;;;;;;5035234;28;20253;-80
2022/12/01 07:26:01;;;;;;;43.77;24.47;;;5.60;99.90;;;;;;5020188;28;20196;-85
2022/12/01 07:28:30;;;;;;;45.57;25.73;;;5.70;99.90;;;;;;5025861;28;20291;-87
2022/12/01 07:31:10;;;;;;;46.63;26.63;;;5.70;99.90;;;;;;5014109;28;20444;-85
2022/12/01 07:33:37;;;;;;;41.53;24.10;;;5.70;99.90;;;;;;5014645;28;20675;-87
2022/12/01 07:36:08;;;;;;;44.10;23.83;;;5.70;99.90;;;;;;5028186;28;20207;-87
2022/12/01 07:38:37;;;;;;;52.83;25.90;;;5.60;99.90;;;;;;5014281;28;20268;-85
2022/12/01 07:41:07;;;;;;;41.23;23.97;;;5.80;99.90;;;;;;5014469;28;20215;-86
2022/12/01 07:43:37;;;;;;;43.47;24.53;;;5.70;99.90;;;;;;5014188;28;20211;-83
2022/12/01 07:46:13;;;;;;;40.83;24.43;;;5.60;99.90;;;;;;5027025;28;20615;-88
2022/12/01 07:48:43;;;;;;;40.10;24.47;;;5.60;99.90;;;;;;5033701;28;20214;-81
2022/12/01 07:51:15;;;;;;;40.63;24.70;;;5.80;99.90;;;;;;5033737;28;20214;-84
2022/12/01 07:53:46;;;;;;;41.83;23.93;;;5.60;99.90;;;;;;5033526;28;20662;-88
2022/12/01 07:56:19;;;;;;;42.30;24.97;;;5.60;99.90;;;;;;5021588;28;20215;-87
2022/12/01 07:58:46;;;;;;;40.07;23.83;;;5.50;99.90;;;;;;5014044;28;20216;-84
2022/12/01 08:01:15;;;;;;;48.27;32.30;;;5.50;99.90;;;;;;5025408;28;20442;-83
2022/12/01 08:03:42;;;;;;;45.10;27.27;;;5.60;99.90;;;;;;5015531;28;20212;-83
2022/12/01 08:06:12;;;;;;;49.30;27.43;;;5.70;99.90;;;;;;5024479;28;20290;-80
2022/12/01 08:08:40;;;;;;;46.60;26.37;;;5.70;99.90;;;;;;5029391;28;20203;-87
2022/12/01 08:11:18;;;;;;;43.73;26.37;;;5.80;99.90;;;;;;5023357;28;20723;-82
2022/12/01 08:13:47;;;;;;;44.27;26.17;;;5.80;99.90;;;;;;5029563;28;20190;-86
2022/12/01 08:16:15;;;;;;;47.50;26.00;;;5.70;99.90;;;;;;5032934;28;20203;-84
2022/12/01 08:18:43;;;;;;;45.33;26.00;;;5.70;99.90;;;;;;5019247;28;20227;-84
2022/12/01 08:21:11;;;;;;;46.00;27.20;;;5.80;99.90;;;;;;5019857;28;20207;-87
2022/12/01 08:23:38;;;;;;;49.00;28.07;;;5.90;99.90;;;;;;5032971;28;20559;-88
2022/12/01 08:26:08;;;;;;;51.57;27.13;;;5.90;99.90;;;;;;5033640;28;20199;-84
2022/12/01 08:28:36;;;;;;;50.13;28.40;;;5.70;99.90;;;;;;5033278;28;20268;-84
2022/12/01 08:31:10;;;;;;;45.20;28.57;;;5.70;99.90;;;;;;5037512;28;20226;-87
2022/12/01 08:33:37;;;;;;;51.00;27.83;;;5.80;99.90;;;;;;5033356;28;20203;-83
2022/12/01 08:36:04;;;;;;;49.43;28.23;;;5.70;99.90;;;;;;5033196;28;20203;-87
2022/12/01 08:38:31;;;;;;;51.70;27.67;;;5.80;99.90;;;;;;5033205;28;20203;-87
2022/12/01 08:41:01;;;;;;;52.37;28.67;;;5.90;99.90;;;;;;5034612;28;20207;-86
2022/12/01 08:43:29;;;;;;;53.03;28.03;;;6.00;99.90;;;;;;5040167;28;20230;-81
2022/12/01 08:45:58;;;;;;;52.73;29.07;;;5.90;99.90;;;;;;5036978;28;20586;-89
2022/12/01 08:48:28;;;;;;;50.27;28.10;;;6.00;99.90;;;;;;5038067;28;20203;-87
2022/12/01 08:51:01;;;;;;;51.03;28.27;;;6.00;99.90;;;;;;5023042;28;20245;-90
2022/12/01 08:53:30;;;;;;;51.03;28.50;;;6.00;99.90;;;;;;5034209;28;20225;-86
2022/12/01 08:55:59;;;;;;;50.23;28.07;;;6.10;99.90;;;;;;5031495;28;20192;-83
2022/12/01 08:58:26;;;;;;;52.45;28.52;;;5.90;99.90;;;;;;5032459;28;20347;-83
2022/12/01 09:00:53;;;;;;;52.30;28.10;;;6.00;99.90;;;;;;5032929;28;20572;-88
2022/12/01 09:03:20;;;;;;;56.50;30.47;;;5.90;99.90;;;;;;5032664;28;20207;-86
2022/12/01 09:05:48;;;;;;;55.10;30.00;;;5.90;99.90;;;;;;5034267;28;20211;-88
2022/12/01 09:08:33;;;;;;;51.47;29.40;;;6.00;99.90;;;;;;5037548;28;20527;-85
2022/12/01 09:11:03;;;;;;;51.70;28.83;;;6.10;99.90;;;;;;5024670;28;20237;-84
2022/12/01 09:13:31;;;;;;;52.03;29.83;;;6.10;99.90;;;;;;5037667;28;20199;-85
2022/12/01 09:15:59;;;;;;;51.13;29.27;;;6.20;99.90;;;;;;5023731;28;20197;-87
2022/12/01 09:18:26;;;;;;;53.13;28.10;;;6.30;99.90;;;;;;5036765;28;20205;-87
2022/12/01 09:20:55;;;;;;;47.60;28.87;;;6.40;99.90;;;;;;5031287;28;20200;-86
2022/12/01 09:23:22;;;;;;;54.53;29.13;;;6.60;99.90;;;;;;5016424;28;20216;-87
2022/12/01 09:25:49;;;;;;;52.90;29.97;;;6.70;99.90;;;;;;5033146;28;20561;-80
2022/12/01 09:28:17;;;;;;;50.90;30.07;;;6.60;99.90;;;;;;5035983;28;20199;-79
2022/12/01 09:30:44;;;;;;;51.80;30.20;;;6.80;99.90;;;;;;5035394;28;20231;-80
2022/12/01 09:33:11;;;;;;;47.57;29.97;;;6.70;99.90;;;;;;5034693;28;20202;-80
2022/12/01 09:35:38;;;;;;;48.03;28.50;;;6.90;99.90;;;;;;5031139;28;20638;-82
2022/12/01 09:38:06;;;;;;;48.23;27.53;;;6.90;99.90;;;;;;5035262;28;20199;-80
2022/12/01 09:40:37;;;;;;;46.80;26.63;;;6.70;99.90;;;;;;5035140;28;20211;-83
2022/12/01 09:43:09;;;;;;;51.97;28.80;;;6.80;99.90;;;;;;5021903;28;20665;-79
2022/12/01 09:45:39;;;;;;;56.10;29.13;;;6.80;99.90;;;;;;5021659;28;20207;-84
2022/12/01 09:48:11;;;;;;;44.30;26.27;;;6.70;99.90;;;;;;5035651;28;20988;-84
2022/12/01 09:50:38;;;;;;;48.37;26.67;;;6.60;99.90;;;;;;5032336;28;20227;-82
2022/12/01 09:53:08;;;;;;;54.37;28.57;;;6.70;99.90;;;;;;5026862;28;20231;-82
2022/12/01 09:55:35;;;;;;;42.23;25.23;;;6.90;99.90;;;;;;5017912;28;20215;-80
2022/12/01 09:58:04;;;;;;;48.07;26.70;;;6.70;99.90;;;;;;5019696;28;20215;-84
2022/12/01 10:00:34;;;;;;;40.30;25.27;;;6.90;99.90;;;;;;5021374;28;20207;-81
2022/12/01 10:03:11;;;;;;;41.23;24.67;;;7.10;99.90;;;;;;5022849;28;20200;-81
2022/12/01 10:05:44;;;;;;;40.50;25.60;;;7.20;99.90;;;;;;5038518;28;20195;-81
2022/12/01 10:08:15;;;;;;;43.57;25.73;;;7.20;99.90;;;;;;5044887;28;20722;-80
2022/12/01 10:10:46;;;;;;;43.67;25.70;;;7.30;99.90;;;;;;5034146;28;20239;-82
2022/12/01 10:13:18;;;;;;;43.60;25.07;;;7.30;99.90;;;;;;5034114;28;20195;-79
2022/12/01 10:15:51;;;;;;;39.77;24.87;;;7.40;99.90;;;;;;5026479;28;20215;-81
2022/12/01 10:18:31;;;;;;;40.53;24.53;;;7.50;99.90;;;;;;5036148;28;20205;-80
2022/12/01 10:21:06;;;;;;;37.70;24.63;;;7.40;99.90;;;;;;5035581;28;20205;-84
2022/12/01 10:23:57;;;;;;;42.27;24.03;;;7.50;99.90;;;;;;5034430;28;20199;-77
2022/12/01 10:26:31;;;;;;;43.83;24.30;;;7.50;99.90;;;;;;5033505;28;20573;-79
2022/12/01 10:29:10;;;;;;;40.77;23.93;;;7.60;99.90;;;;;;5034574;28;20203;-79
2022/12/01 10:31:46;;;;;;;40.90;24.13;;;7.50;99.90;;;;;;5034660;28;20234;-79
2022/12/01 10:34:17;;;;;;;40.87;25.20;;;7.60;99.90;;;;;;5034370;28;20214;-79
2022/12/01 10:36:44;;;;;;;39.83;24.73;;;7.30;99.90;;;;;;5034583;28;20216;-79
2022/12/01 10:39:18;;;;;;;42.80;25.97;;;7.40;99.90;;;;;;5034300;28;20211;-79
2022/12/01 10:41:47;;;;;;;41.63;24.77;;;7.50;99.90;;;;;;5034501;28;20207;-78
2022/12/01 10:44:18;;;;;;;40.27;23.63;;;7.40;99.90;;;;;;5034474;28;20194;-79
2022/12/01 10:46:48;;;;;;;42.00;24.27;;;7.60;99.90;;;;;;5034403;28;20207;-81
2022/12/01 10:49:17;;;;;;;42.27;23.53;;;7.60;99.90;;;;;;5034344;28;20207;-79
2022/12/01 10:51:53;;;;;;;40.63;24.90;;;7.80;99.90;;;;;;5033653;28;20238;-79
2022/12/01 10:54:24;;;;;;;40.50;23.70;;;7.80;99.90;;;;;;5033780;28;20227;-79
2022/12/01 10:56:55;;;;;;;37.57;23.00;;;7.70;99.90;;;;;;5033869;28;20206;-79
2022/12/01 10:59:30;;;;;;;40.07;23.90;;;7.70;99.90;;;;;;5033979;28;20226;-80
2022/12/01 11:01:57;;;;;;;35.13;22.00;;;7.70;99.90;;;;;;5033658;28;20206;-79
2022/12/01 11:04:43;;;;;;;38.47;23.17;;;7.80;99.90;;;;;;5033819;28;20218;-79
2022/12/01 11:07:20;;;;;;;37.50;21.87;;;8.00;99.90;;;;;;5033458;28;20296;-79
2022/12/01 11:10:05;;;;;;;36.63;22.57;;;8.10;99.90;;;;;;5033614;28;20646;-79
2022/12/01 11:12:33;;;;;;;33.77;21.50;;;7.90;99.90;;;;;;5020524;28;20215;-80
2022/12/01 11:15:01;;;;;;;32.10;21.60;;;7.90;99.90;;;;;;5033668;28;20210;-78
2022/12/01 11:17:32;;;;;;;33.13;22.03;;;8.10;99.90;;;;;;5033882;28;20666;-79
2022/12/01 11:20:16;;;;;;;39.00;22.70;;;7.90;99.90;;;;;;5033739;28;20203;-79
2022/12/01 11:22:43;;;;;;;39.57;22.87;;;7.60;99.90;;;;;;5033498;28;20571;-81
2022/12/01 11:25:21;;;;;;;34.30;22.27;;;7.40;99.90;;;;;;5034441;28;20195;-84
2022/12/01 11:27:53;;;;;;;33.20;22.17;;;7.50;99.90;;;;;;5034580;28;20209;-84
2022/12/01 11:30:25;;;;;;;35.53;21.70;;;7.80;99.90;;;;;;5032878;28;20314;-80
2022/12/01 11:32:55;;;;;;;33.23;21.17;;;8.00;99.90;;;;;;5019786;28;20199;-80
2022/12/01 11:35:24;;;;;;;38.07;22.57;;;7.90;99.90;;;;;;5023251;28;20203;-78
2022/12/01 11:37:54;;;;;;;35.87;23.00;;;7.80;99.90;;;;;;5027029;28;20195;-79
2022/12/01 11:40:25;;;;;;;33.97;21.00;;;7.90;99.90;;;;;;5018672;28;20583;-78
2022/12/01 11:42:55;;;;;;;35.13;22.07;;;7.60;99.90;;;;;;5024024;28;20203;-79
2022/12/01 11:45:31;;;;;;;35.07;21.83;;;7.70;99.90;;;;;;5021902;28;20200;-79
2022/12/01 11:48:00;;;;;;;36.27;22.57;;;7.60;99.90;;;;;;5018561;28;20210;-80
2022/12/01 11:50:30;;;;;;;36.83;21.80;;;7.70;99.90;;;;;;5017579;28;20248;-79
2022/12/01 11:52:57;;;;;;;36.27;21.97;;;7.80;99.90;;;;;;5013166;28;20224;-79
2022/12/01 11:55:29;;;;;;;33.77;21.37;;;7.70;99.90;;;;;;5018441;28;20195;-80
2022/12/01 11:58:00;;;;;;;40.17;23.90;;;7.50;99.90;;;;;;5018750;28;20200;-79
2022/12/01 12:00:29;;;;;;;37.70;23.07;;;7.50;99.90;;;;;;5012699;28;20203;-79
2022/12/01 12:03:14;;;;;;;37.37;23.03;;;7.80;99.90;;;;;;5015871;28;20206;-78
2022/12/01 12:06:13;;;;;;;34.40;21.90;;;8.00;99.90;;;;;;5017859;28;20214;-79
2022/12/01 12:08:58;;;;;;;40.03;20.20;;;8.10;99.90;;;;;;5015647;28;20210;-78
2022/12/01 12:11:39;;;;;;;33.73;21.17;;;7.70;99.90;;;;;;5022410;28;20231;-79
2022/12/01 12:14:26;;;;;;;33.93;20.20;;;7.60;99.90;;;;;;5032596;28;20548;-80
2022/12/01 12:17:13;;;;;;;34.77;21.17;;;7.70;99.90;;;;;;5033106;28;20202;-80
2022/12/01 12:19:55;;;;;;;29.93;19.50;;;7.80;99.90;;;;;;5032348;28;20230;-79
2022/12/01 12:22:32;;;;;;;32.57;20.37;;;8.10;99.90;;;;;;5018933;28;20195;-78
2022/12/01 12:25:10;;;;;;;32.43;19.63;;;7.90;99.90;;;;;;5033042;28;20210;-80
2022/12/01 12:27:47;;;;;;;37.83;20.93;;;8.10;99.90;;;;;;5032719;28;20203;-79
2022/12/01 12:30:21;;;;;;;39.40;22.90;;;8.10;99.90;;;;;;5032578;28;20578;-81
2022/12/01 12:33:37;;;;;;;36.63;23.77;;;8.00;99.90;;;;;;5018651;28;20195;-80
2022/12/01 12:36:15;;;;;;;41.83;24.30;;;7.80;99.90;;;;;;5032846;28;20214;-87
2022/12/01 12:38:56;;;;;;;46.93;27.87;;;7.70;99.90;;;;;;5022888;28;20204;-82
2022/12/01 12:41:32;;;;;;;38.93;25.40;;;7.70;99.90;;;;;;5035450;28;20207;-83
2022/12/01 12:44:16;;;;;;;38.33;25.47;;;7.70;99.90;;;;;;5037383;28;20202;-82
2022/12/01 12:46:51;;;;;;;40.23;27.53;;;7.60;99.90;;;;;;5036484;28;20206;-80
2022/12/01 12:49:32;;;;;;;43.40;27.17;;;7.80;99.90;;;;;;5036550;28;20194;-81
2022/12/01 12:52:04;;;;;;;42.23;27.23;;;7.60;99.90;;;;;;5036265;28;20254;-83
2022/12/01 12:54:35;;;;;;;44.63;28.33;;;7.60;99.90;;;;;;5036685;28;20241;-81
2022/12/01 12:57:05;;;;;;;42.80;25.83;;;7.80;99.90;;;;;;5032809;28;20204;-82
2022/12/01 12:59:39;;;;;;;42.20;26.53;;;7.90;99.90;;;;;;5028310;28;20199;-90
2022/12/01 13:02:15;;;;;;;38.33;25.63;;;7.80;99.90;;;;;;5032208;28;20206;-82
2022/12/01 13:04:48;;;;;;;37.47;24.57;;;7.90;99.90;;;;;;5020189;28;20665;-81